sensor_id;sensor_type;location;lat;lon;timestamp;temperature;humidity
18712;DHT22;9485;49.386;8.674;2022-10-16T00:01:19;18.90;98.20
18712;DHT22;9485;49.386;8.674;2022-10-16T00:06:40;18.90;98.20
18712;DHT22;9485;49.386;8.674;2022-10-16T00:12:01;18.90;98.20
18712;DHT22;9485;49.386;8.674;2022-10-16T00:17:24;18.90;98.20
18712;DHT22;9485;49.386;8.674;2022-10-16T00:22:44;18.90;98.20
18712;DHT22;9485;49.386;8.674;2022-10-16T00:28:05;18.90;98.20
18712;DHT22;9485;49.386;8.674;2022-10-16T00:33:27;18.90;98.20
18712;DHT22;9485;49.386;8.674;2022-10-16T00:38:50;18.90;98.20
18712;DHT22;9485;49.386;8.674;2022-10-16T00:44:42;18.90;98.20
18712;DHT22;9485;49.386;8.674;2022-10-16T00:50:08;19.00;98.00
18712;DHT22;9485;49.386;8.674;2022-10-16T00:55:31;19.00;98.20
18712;DHT22;9485;49.386;8.674;2022-10-16T01:00:52;19.00;98.20
18712;DHT22;9485;49.386;8.674;2022-10-16T01:06:21;19.00;98.20
18712;DHT22;9485;49.386;8.674;2022-10-16T01:11:52;19.00;98.10
18712;DHT22;9485;49.386;8.674;2022-10-16T01:17:27;19.00;98.10
18712;DHT22;9485;49.386;8.674;2022-10-16T01:23:15;19.00;98.10
18712;DHT22;9485;49.386;8.674;2022-10-16T01:28:53;19.00;97.90
18712;DHT22;9485;49.386;8.674;2022-10-16T01:34:20;19.00;98.00
18712;DHT22;9485;49.386;8.674;2022-10-16T01:39:45;19.00;98.10
18712;DHT22;9485;49.386;8.674;2022-10-16T01:45:12;19.00;98.10
18712;DHT22;9485;49.386;8.674;2022-10-16T01:50:39;19.00;98.10
18712;DHT22;9485;49.386;8.674;2022-10-16T01:56:06;19.10;98.10
18712;DHT22;9485;49.386;8.674;2022-10-16T02:01:33;19.10;98.00
18712;DHT22;9485;49.386;8.674;2022-10-16T02:06:56;19.10;98.00
18712;DHT22;9485;49.386;8.674;2022-10-16T02:12:23;19.10;98.10
18712;DHT22;9485;49.386;8.674;2022-10-16T02:17:49;19.10;97.90
18712;DHT22;9485;49.386;8.674;2022-10-16T02:23:12;19.20;97.90
18712;DHT22;9485;49.386;8.674;2022-10-16T02:28:42;19.10;97.80
18712;DHT22;9485;49.386;8.674;2022-10-16T02:34:08;19.10;97.80
18712;DHT22;9485;49.386;8.674;2022-10-16T02:39:31;19.10;97.80
18712;DHT22;9485;49.386;8.674;2022-10-16T02:45:19;19.10;97.90
18712;DHT22;9485;49.386;8.674;2022-10-16T02:50:41;19.10;97.80
18712;DHT22;9485;49.386;8.674;2022-10-16T02:56:02;19.10;97.70
18712;DHT22;9485;49.386;8.674;2022-10-16T03:01:23;19.10;97.70
18712;DHT22;9485;49.386;8.674;2022-10-16T03:06:45;19.00;97.60
18712;DHT22;9485;49.386;8.674;2022-10-16T03:12:06;19.00;97.70
18712;DHT22;9485;49.386;8.674;2022-10-16T03:17:27;19.00;97.70
18712;DHT22;9485;49.386;8.674;2022-10-16T03:22:49;19.00;97.80
18712;DHT22;9485;49.386;8.674;2022-10-16T03:28:10;19.00;97.70
18712;DHT22;9485;49.386;8.674;2022-10-16T03:33:30;19.00;97.70
18712;DHT22;9485;49.386;8.674;2022-10-16T03:38:52;19.00;97.70
18712;DHT22;9485;49.386;8.674;2022-10-16T03:44:13;19.10;97.70
18712;DHT22;9485;49.386;8.674;2022-10-16T03:49:33;19.10;97.70
18712;DHT22;9485;49.386;8.674;2022-10-16T03:54:55;19.10;97.70
18712;DHT22;9485;49.386;8.674;2022-10-16T04:00:16;19.10;97.50
18712;DHT22;9485;49.386;8.674;2022-10-16T04:05:37;19.10;97.60
18712;DHT22;9485;49.386;8.674;2022-10-16T04:10:59;19.10;97.60
18712;DHT22;9485;49.386;8.674;2022-10-16T04:16:20;19.10;97.60
18712;DHT22;9485;49.386;8.674;2022-10-16T04:21:41;19.20;97.60
18712;DHT22;9485;49.386;8.674;2022-10-16T04:27:03;19.20;97.60
18712;DHT22;9485;49.386;8.674;2022-10-16T04:32:24;19.20;97.50
18712;DHT22;9485;49.386;8.674;2022-10-16T04:37:45;19.20;97.50
18712;DHT22;9485;49.386;8.674;2022-10-16T04:43:07;19.20;97.40
18712;DHT22;9485;49.386;8.674;2022-10-16T04:48:28;19.10;97.30
18712;DHT22;9485;49.386;8.674;2022-10-16T04:53:49;19.10;97.30
18712;DHT22;9485;49.386;8.674;2022-10-16T04:59:11;19.10;97.40
18712;DHT22;9485;49.386;8.674;2022-10-16T05:04:32;19.10;97.40
18712;DHT22;9485;49.386;8.674;2022-10-16T05:09:53;19.10;97.40
18712;DHT22;9485;49.386;8.674;2022-10-16T05:15:15;19.00;97.30
18712;DHT22;9485;49.386;8.674;2022-10-16T05:20:35;19.00;97.20
18712;DHT22;9485;49.386;8.674;2022-10-16T05:25:57;19.00;97.20
18712;DHT22;9485;49.386;8.674;2022-10-16T05:31:20;19.00;97.30
18712;DHT22;9485;49.386;8.674;2022-10-16T05:36:40;19.00;97.30
18712;DHT22;9485;49.386;8.674;2022-10-16T05:42:01;18.90;97.30
18712;DHT22;9485;49.386;8.674;2022-10-16T05:47:23;18.90;97.30
18712;DHT22;9485;49.386;8.674;2022-10-16T05:52:44;18.90;97.20
18712;DHT22;9485;49.386;8.674;2022-10-16T05:58:05;18.90;97.30
18712;DHT22;9485;49.386;8.674;2022-10-16T06:03:27;18.90;97.50
18712;DHT22;9485;49.386;8.674;2022-10-16T06:08:49;18.90;97.50
18712;DHT22;9485;49.386;8.674;2022-10-16T06:14:10;18.90;97.50
18712;DHT22;9485;49.386;8.674;2022-10-16T06:19:31;19.00;97.60
18712;DHT22;9485;49.386;8.674;2022-10-16T06:24:53;19.00;97.50
18712;DHT22;9485;49.386;8.674;2022-10-16T06:30:14;19.10;97.50
18712;DHT22;9485;49.386;8.674;2022-10-16T06:35:36;19.10;97.40
18712;DHT22;9485;49.386;8.674;2022-10-16T06:40:57;19.20;97.30
18712;DHT22;9485;49.386;8.674;2022-10-16T06:46:24;19.20;97.40
18712;DHT22;9485;49.386;8.674;2022-10-16T06:51:47;19.20;97.40
18712;DHT22;9485;49.386;8.674;2022-10-16T06:57:08;19.30;97.40
18712;DHT22;9485;49.386;8.674;2022-10-16T07:02:28;19.30;97.40
18712;DHT22;9485;49.386;8.674;2022-10-16T07:07:51;19.30;97.50
18712;DHT22;9485;49.386;8.674;2022-10-16T07:13:11;19.30;97.50
18712;DHT22;9485;49.386;8.674;2022-10-16T07:18:34;19.50;97.70
18712;DHT22;9485;49.386;8.674;2022-10-16T07:23:59;19.50;97.70
18712;DHT22;9485;49.386;8.674;2022-10-16T07:29:21;19.60;97.80
18712;DHT22;9485;49.386;8.674;2022-10-16T07:34:42;19.70;97.90
18712;DHT22;9485;49.386;8.674;2022-10-16T07:40:06;19.80;97.90
18712;DHT22;9485;49.386;8.674;2022-10-16T07:45:27;19.90;98.00
18712;DHT22;9485;49.386;8.674;2022-10-16T07:50:49;20.10;98.20
18712;DHT22;9485;49.386;8.674;2022-10-16T07:56:11;20.20;98.20
18712;DHT22;9485;49.386;8.674;2022-10-16T08:01:32;20.40;97.90
18712;DHT22;9485;49.386;8.674;2022-10-16T08:06:53;20.50;98.20
18712;DHT22;9485;49.386;8.674;2022-10-16T08:12:15;20.70;97.60
18712;DHT22;9485;49.386;8.674;2022-10-16T08:17:36;20.80;97.20
18712;DHT22;9485;49.386;8.674;2022-10-16T08:22:57;20.90;97.30
18712;DHT22;9485;49.386;8.674;2022-10-16T08:28:21;21.00;97.20
18712;DHT22;9485;49.386;8.674;2022-10-16T08:33:44;21.20;96.90
18712;DHT22;9485;49.386;8.674;2022-10-16T08:39:06;21.20;96.90
18712;DHT22;9485;49.386;8.674;2022-10-16T08:50:30;21.30;95.90
18712;DHT22;9485;49.386;8.674;2022-10-16T08:55:53;21.30;96.50
18712;DHT22;9485;49.386;8.674;2022-10-16T09:01:19;21.40;96.60
18712;DHT22;9485;49.386;8.674;2022-10-16T09:06:47;21.40;96.50
18712;DHT22;9485;49.386;8.674;2022-10-16T09:12:20;21.60;96.70
18712;DHT22;9485;49.386;8.674;2022-10-16T09:17:54;22.00;97.10
18712;DHT22;9485;49.386;8.674;2022-10-16T09:23:25;22.20;97.00
18712;DHT22;9485;49.386;8.674;2022-10-16T09:28:48;22.70;96.80
18712;DHT22;9485;49.386;8.674;2022-10-16T09:34:17;22.90;96.80
18712;DHT22;9485;49.386;8.674;2022-10-16T09:39:45;23.30;96.20
18712;DHT22;9485;49.386;8.674;2022-10-16T09:45:20;23.80;96.70
18712;DHT22;9485;49.386;8.674;2022-10-16T09:50:55;24.20;94.00
18712;DHT22;9485;49.386;8.674;2022-10-16T09:56:23;24.30;92.60
18712;DHT22;9485;49.386;8.674;2022-10-16T10:01:46;24.20;92.90
18712;DHT22;9485;49.386;8.674;2022-10-16T10:07:19;24.00;93.00
18712;DHT22;9485;49.386;8.674;2022-10-16T10:12:45;23.80;92.50
18712;DHT22;9485;49.386;8.674;2022-10-16T10:18:16;23.80;93.60
18712;DHT22;9485;49.386;8.674;2022-10-16T10:23:42;23.80;92.70
18712;DHT22;9485;49.386;8.674;2022-10-16T10:29:05;24.00;93.80
18712;DHT22;9485;49.386;8.674;2022-10-16T10:34:52;24.10;93.30
18712;DHT22;9485;49.386;8.674;2022-10-16T10:40:32;24.20;92.30
18712;DHT22;9485;49.386;8.674;2022-10-16T10:46:04;24.30;92.30
18712;DHT22;9485;49.386;8.674;2022-10-16T10:51:31;24.30;92.90
18712;DHT22;9485;49.386;8.674;2022-10-16T10:57:09;24.30;92.30
18712;DHT22;9485;49.386;8.674;2022-10-16T11:02:39;24.30;92.40
18712;DHT22;9485;49.386;8.674;2022-10-16T11:08:08;24.20;92.30
18712;DHT22;9485;49.386;8.674;2022-10-16T11:13:39;24.20;91.90
18712;DHT22;9485;49.386;8.674;2022-10-16T11:19:12;24.20;91.70
18712;DHT22;9485;49.386;8.674;2022-10-16T11:24:53;24.10;91.60
18712;DHT22;9485;49.386;8.674;2022-10-16T11:30:22;24.10;92.30
18712;DHT22;9485;49.386;8.674;2022-10-16T11:35:48;24.10;92.80
18712;DHT22;9485;49.386;8.674;2022-10-16T11:41:20;24.30;93.40
18712;DHT22;9485;49.386;8.674;2022-10-16T11:46:53;24.50;93.10
18712;DHT22;9485;49.386;8.674;2022-10-16T11:52:25;24.70;92.80
18712;DHT22;9485;49.386;8.674;2022-10-16T11:57:53;25.10;93.00
18712;DHT22;9485;49.386;8.674;2022-10-16T12:03:22;25.50;92.50
18712;DHT22;9485;49.386;8.674;2022-10-16T12:08:49;25.70;91.70
18712;DHT22;9485;49.386;8.674;2022-10-16T12:14:21;26.00;92.60
18712;DHT22;9485;49.386;8.674;2022-10-16T12:20:00;26.40;90.90
18712;DHT22;9485;49.386;8.674;2022-10-16T12:25:34;26.60;90.50
18712;DHT22;9485;49.386;8.674;2022-10-16T12:31:00;26.50;90.40
18712;DHT22;9485;49.386;8.674;2022-10-16T12:36:30;26.40;89.20
18712;DHT22;9485;49.386;8.674;2022-10-16T12:42:03;26.10;87.90
18712;DHT22;9485;49.386;8.674;2022-10-16T12:47:37;26.00;88.20
18712;DHT22;9485;49.386;8.674;2022-10-16T12:53:19;25.90;88.70
18712;DHT22;9485;49.386;8.674;2022-10-16T12:58:59;25.90;86.70
18712;DHT22;9485;49.386;8.674;2022-10-16T13:04:52;25.80;86.40
18712;DHT22;9485;49.386;8.674;2022-10-16T13:10:36;25.60;86.70
18712;DHT22;9485;49.386;8.674;2022-10-16T13:16:10;25.70;89.10
18712;DHT22;9485;49.386;8.674;2022-10-16T13:21:45;25.70;87.80
18712;DHT22;9485;49.386;8.674;2022-10-16T13:27:15;25.70;88.50
18712;DHT22;9485;49.386;8.674;2022-10-16T13:32:45;25.70;88.10
18712;DHT22;9485;49.386;8.674;2022-10-16T13:38:13;25.60;87.80
18712;DHT22;9485;49.386;8.674;2022-10-16T13:43:39;25.40;86.40
18712;DHT22;9485;49.386;8.674;2022-10-16T13:49:04;25.10;88.00
18712;DHT22;9485;49.386;8.674;2022-10-16T13:54:31;24.90;89.20
18712;DHT22;9485;49.386;8.674;2022-10-16T13:59:53;24.80;90.10
18712;DHT22;9485;49.386;8.674;2022-10-16T14:05:14;24.60;90.00
18712;DHT22;9485;49.386;8.674;2022-10-16T14:10:35;24.50;90.00
18712;DHT22;9485;49.386;8.674;2022-10-16T14:16:04;24.30;90.10
18712;DHT22;9485;49.386;8.674;2022-10-16T14:21:28;24.20;89.80
18712;DHT22;9485;49.386;8.674;2022-10-16T14:26:49;24.10;90.50
18712;DHT22;9485;49.386;8.674;2022-10-16T14:32:26;24.00;90.70
18712;DHT22;9485;49.386;8.674;2022-10-16T14:37:52;24.00;90.20
18712;DHT22;9485;49.386;8.674;2022-10-16T14:43:19;23.80;91.10
18712;DHT22;9485;49.386;8.674;2022-10-16T14:48:45;23.80;91.20
18712;DHT22;9485;49.386;8.674;2022-10-16T14:54:08;23.70;91.20
18712;DHT22;9485;49.386;8.674;2022-10-16T14:59:32;23.50;91.50
18712;DHT22;9485;49.386;8.674;2022-10-16T15:04:57;23.40;91.10
18712;DHT22;9485;49.386;8.674;2022-10-16T15:10:23;23.30;91.50
18712;DHT22;9485;49.386;8.674;2022-10-16T15:15:46;23.30;91.50
18712;DHT22;9485;49.386;8.674;2022-10-16T15:21:22;23.40;91.60
18712;DHT22;9485;49.386;8.674;2022-10-16T15:26:45;23.50;90.40
18712;DHT22;9485;49.386;8.674;2022-10-16T15:32:06;23.60;91.00
18712;DHT22;9485;49.386;8.674;2022-10-16T15:37:30;23.70;91.00
18712;DHT22;9485;49.386;8.674;2022-10-16T15:42:50;23.70;90.30
18712;DHT22;9485;49.386;8.674;2022-10-16T15:48:12;23.60;90.40
18712;DHT22;9485;49.386;8.674;2022-10-16T15:53:34;23.60;90.50
18712;DHT22;9485;49.386;8.674;2022-10-16T15:58:55;23.50;90.10
18712;DHT22;9485;49.386;8.674;2022-10-16T16:04:17;23.40;90.50
18712;DHT22;9485;49.386;8.674;2022-10-16T16:09:39;23.30;90.70
18712;DHT22;9485;49.386;8.674;2022-10-16T16:15:00;23.20;90.70
18712;DHT22;9485;49.386;8.674;2022-10-16T16:20:21;23.00;90.80
18712;DHT22;9485;49.386;8.674;2022-10-16T16:25:43;22.90;90.80
18712;DHT22;9485;49.386;8.674;2022-10-16T16:31:05;22.70;90.70
18712;DHT22;9485;49.386;8.674;2022-10-16T16:36:31;22.50;90.70
18712;DHT22;9485;49.386;8.674;2022-10-16T16:41:55;22.30;91.00
18712;DHT22;9485;49.386;8.674;2022-10-16T16:47:17;22.10;91.00
18712;DHT22;9485;49.386;8.674;2022-10-16T16:52:37;21.90;91.30
18712;DHT22;9485;49.386;8.674;2022-10-16T16:57:59;21.70;91.30
18712;DHT22;9485;49.386;8.674;2022-10-16T17:03:22;21.50;91.30
18712;DHT22;9485;49.386;8.674;2022-10-16T17:08:43;21.30;91.60
18712;DHT22;9485;49.386;8.674;2022-10-16T17:14:08;21.20;92.00
18712;DHT22;9485;49.386;8.674;2022-10-16T17:19:29;21.10;92.10
18712;DHT22;9485;49.386;8.674;2022-10-16T17:24:50;21.10;92.60
18712;DHT22;9485;49.386;8.674;2022-10-16T17:30:14;21.10;92.60
18712;DHT22;9485;49.386;8.674;2022-10-16T17:35:39;21.20;92.60
18712;DHT22;9485;49.386;8.674;2022-10-16T17:41:10;21.30;92.50
18712;DHT22;9485;49.386;8.674;2022-10-16T17:46:33;21.40;92.20
18712;DHT22;9485;49.386;8.674;2022-10-16T17:51:54;21.50;92.50
18712;DHT22;9485;49.386;8.674;2022-10-16T17:57:15;21.50;92.50
18712;DHT22;9485;49.386;8.674;2022-10-16T18:02:37;21.50;92.50
18712;DHT22;9485;49.386;8.674;2022-10-16T18:08:08;21.50;91.80
18712;DHT22;9485;49.386;8.674;2022-10-16T18:13:32;21.50;92.10
18712;DHT22;9485;49.386;8.674;2022-10-16T18:18:57;21.40;92.00
18712;DHT22;9485;49.386;8.674;2022-10-16T18:24:19;21.20;91.80
18712;DHT22;9485;49.386;8.674;2022-10-16T18:29:40;21.10;92.20
18712;DHT22;9485;49.386;8.674;2022-10-16T18:35:02;21.00;92.50
18712;DHT22;9485;49.386;8.674;2022-10-16T18:40:23;21.10;92.80
18712;DHT22;9485;49.386;8.674;2022-10-16T18:45:54;21.30;93.10
18712;DHT22;9485;49.386;8.674;2022-10-16T18:51:18;21.60;92.20
18712;DHT22;9485;49.386;8.674;2022-10-16T18:56:45;21.80;92.50
18712;DHT22;9485;49.386;8.674;2022-10-16T19:02:11;22.10;92.60
18712;DHT22;9485;49.386;8.674;2022-10-16T19:07:33;22.20;92.20
18712;DHT22;9485;49.386;8.674;2022-10-16T19:12:53;22.40;91.80
18712;DHT22;9485;49.386;8.674;2022-10-16T19:18:14;22.50;91.70
18712;DHT22;9485;49.386;8.674;2022-10-16T19:23:37;22.50;91.40
18712;DHT22;9485;49.386;8.674;2022-10-16T19:29:00;22.60;91.10
18712;DHT22;9485;49.386;8.674;2022-10-16T19:34:21;22.60;91.10
18712;DHT22;9485;49.386;8.674;2022-10-16T19:39:43;22.60;91.10
18712;DHT22;9485;49.386;8.674;2022-10-16T19:45:05;22.60;90.90
18712;DHT22;9485;49.386;8.674;2022-10-16T19:50:28;22.50;90.90
18712;DHT22;9485;49.386;8.674;2022-10-16T19:55:50;22.40;91.00
18712;DHT22;9485;49.386;8.674;2022-10-16T20:01:12;22.30;90.90
18712;DHT22;9485;49.386;8.674;2022-10-16T20:06:33;22.20;91.10
18712;DHT22;9485;49.386;8.674;2022-10-16T20:11:55;22.10;90.90
18712;DHT22;9485;49.386;8.674;2022-10-16T20:17:16;22.00;91.00
18712;DHT22;9485;49.386;8.674;2022-10-16T20:22:36;22.00;91.30
18712;DHT22;9485;49.386;8.674;2022-10-16T20:27:59;22.00;91.40
18712;DHT22;9485;49.386;8.674;2022-10-16T20:33:20;22.00;91.10
18712;DHT22;9485;49.386;8.674;2022-10-16T20:38:41;22.10;91.50
18712;DHT22;9485;49.386;8.674;2022-10-16T20:44:04;22.40;90.90
18712;DHT22;9485;49.386;8.674;2022-10-16T20:49:25;22.30;91.20
18712;DHT22;9485;49.386;8.674;2022-10-16T20:54:47;22.50;91.00
18712;DHT22;9485;49.386;8.674;2022-10-16T21:00:10;22.50;91.00
18712;DHT22;9485;49.386;8.674;2022-10-16T21:05:32;22.60;90.50
18712;DHT22;9485;49.386;8.674;2022-10-16T21:10:52;22.60;90.80
18712;DHT22;9485;49.386;8.674;2022-10-16T21:16:17;22.70;90.70
18712;DHT22;9485;49.386;8.674;2022-10-16T21:21:38;22.70;90.50
18712;DHT22;9485;49.386;8.674;2022-10-16T21:26:59;22.70;90.50
18712;DHT22;9485;49.386;8.674;2022-10-16T21:32:21;22.70;90.40
18712;DHT22;9485;49.386;8.674;2022-10-16T21:37:42;22.70;90.20
18712;DHT22;9485;49.386;8.674;2022-10-16T21:43:07;22.70;90.20
18712;DHT22;9485;49.386;8.674;2022-10-16T21:48:30;22.70;90.30
18712;DHT22;9485;49.386;8.674;2022-10-16T21:53:51;22.60;90.10
18712;DHT22;9485;49.386;8.674;2022-10-16T21:59:12;22.50;90.60
18712;DHT22;9485;49.386;8.674;2022-10-16T22:04:35;22.40;90.20
18712;DHT22;9485;49.386;8.674;2022-10-16T22:09:55;22.20;90.00
18712;DHT22;9485;49.386;8.674;2022-10-16T22:15:17;22.00;90.00
18712;DHT22;9485;49.386;8.674;2022-10-16T22:20:43;21.70;89.80
18712;DHT22;9485;49.386;8.674;2022-10-16T22:26:07;21.40;89.30
18712;DHT22;9485;49.386;8.674;2022-10-16T22:31:29;21.10;90.30
18712;DHT22;9485;49.386;8.674;2022-10-16T22:36:51;20.90;90.60
18712;DHT22;9485;49.386;8.674;2022-10-16T22:42:12;20.70;90.80
18712;DHT22;9485;49.386;8.674;2022-10-16T22:47:33;20.50;91.00
18712;DHT22;9485;49.386;8.674;2022-10-16T22:52:57;20.30;91.10
18712;DHT22;9485;49.386;8.674;2022-10-16T22:58:18;20.20;91.20
18712;DHT22;9485;49.386;8.674;2022-10-16T23:03:39;20.00;91.50
18712;DHT22;9485;49.386;8.674;2022-10-16T23:09:01;19.90;91.60
18712;DHT22;9485;49.386;8.674;2022-10-16T23:14:23;19.70;91.70
18712;DHT22;9485;49.386;8.674;2022-10-16T23:19:43;19.50;91.90
18712;DHT22;9485;49.386;8.674;2022-10-16T23:25:06;19.40;92.10
18712;DHT22;9485;49.386;8.674;2022-10-16T23:30:27;19.30;92.10
18712;DHT22;9485;49.386;8.674;2022-10-16T23:35:48;19.20;92.20
18712;DHT22;9485;49.386;8.674;2022-10-16T23:41:11;19.10;92.30
18712;DHT22;9485;49.386;8.674;2022-10-16T23:46:33;19.00;92.30
18712;DHT22;9485;49.386;8.674;2022-10-16T23:51:54;18.90;92.60
18712;DHT22;9485;49.386;8.674;2022-10-16T23:57:16;18.80;92.80
